Pagina principale
METAR-TAF:

METAR-TAF

Aeroporti :

Aeroporto di Piacenza-San Damiano

Piacenza, Italia

latitudine: 44-55N, longitudine: 009-44E, altezza: 134 m

Osservazione

Il bollettino è stato emesso 8 ore e 19 minuti fa, alle 17:55 UTC
Vento 6 kt da sud/sud-est
Temperature 18°C
Umidità 100%
Pressione 1008 hPa
Visibilità 10 km o più
nessuna nube inferiore a 1500 m e nessun cumulonembo

METAR: LIMS 151755Z 16006KT CAVOK 18/18 Q1008 RMK FEW FEW100 VIS MIN 9999 WIND THR30 15006KT BLU

Ora: 04:14 (02:14 UTC)


TAF: mancante

Osservazioni e previsioni meteorologiche di più di 4000 aeroporti (messaggi METAR e TAF).

Le stazioni disponibili sono rappresentate dai dischi gialli e rossi sulla carta.

Puntare il mouse per vedere il nome della stazione.

Clicca sopra per visualizzare le osservazioni e previsioni meteorologiche.

Per cambiare la mappa : fare clic sui pulsanti verdi con una croce nera per ingrandire, il pulsante verde con un trattino per diminuire, o sulla freccia verde per le mappe adiacenti.


METAR-TAF: